<?xml version="1.0" encoding="UTF-8" standalone="no" ?>
<gpx xmlns="http://www.topografix.com/GPX/1/1" xmlns:xsi="http://www.w3.org/2001/XMLSchema-instance" xsi:schemaLocation="http://www.topografix.com/GPX/1/1 http://www.topografix.com/GPX/1/1/gpx.xsd" version="1.1" creator="VisuGPX - https://www.visugpx.com">
  <metadata>
    <name>Boucle des cascades </name>
    <desc><![CDATA[File with points/tracks from Locus Map/4.34.1]]></desc>
  </metadata>
  <trk>
    <name><![CDATA[Boucles des cascades 2026-06-29 14:51]]></name>
    <extensions>
      <line xmlns="http://www.topografix.com/GPX/gpx_style/0/2">
        <color>0000FF</color>
        <opacity>0.70</opacity>
        <width>6.0</width>
      </line>
    </extensions>
    <trkseg>
      <trkpt lat="45.89837" lon="3.03175">
        <ele>583.76</ele>
        <time>2026-06-29T12:51:56.000Z</time>
      </trkpt>
      <trkpt lat="45.89843" lon="3.03166">
        <ele>587.04</ele>
        <time>2026-06-29T12:52:14.000Z</time>
      </trkpt>
      <trkpt lat="45.89849" lon="3.03155">
        <ele>587.34</ele>
        <time>2026-06-29T12:52:27.000Z</time>
      </trkpt>
      <trkpt lat="45.89851" lon="3.03141">
        <ele>583.71</ele>
        <time>2026-06-29T12:52:46.000Z</time>
      </trkpt>
      <trkpt lat="45.89857" lon="3.03132">
        <ele>581.74</ele>
        <time>2026-06-29T12:52:57.000Z</time>
      </trkpt>
      <trkpt lat="45.8986" lon="3.03119">
        <ele>586.43</ele>
        <time>2026-06-29T12:53:07.000Z</time>
      </trkpt>
      <trkpt lat="45.8986" lon="3.03105">
        <ele>591.31</ele>
        <time>2026-06-29T12:53:37.000Z</time>
      </trkpt>
      <trkpt lat="45.89863" lon="3.03093">
        <ele>590.63</ele>
        <time>2026-06-29T12:53:48.000Z</time>
      </trkpt>
      <trkpt lat="45.89863" lon="3.03079">
        <ele>593.07</ele>
        <time>2026-06-29T12:54:01.000Z</time>
      </trkpt>
      <trkpt lat="45.89869" lon="3.03066">
        <ele>591.11</ele>
        <time>2026-06-29T12:54:11.000Z</time>
      </trkpt>
      <trkpt lat="45.89875" lon="3.03056">
        <ele>591.32</ele>
        <time>2026-06-29T12:54:24.000Z</time>
      </trkpt>
      <trkpt lat="45.89879" lon="3.03043">
        <ele>591.45</ele>
        <time>2026-06-29T12:54:36.000Z</time>
      </trkpt>
      <trkpt lat="45.89884" lon="3.03032">
        <ele>588.68</ele>
        <time>2026-06-29T12:54:48.000Z</time>
      </trkpt>
      <trkpt lat="45.89893" lon="3.03025">
        <ele>586.91</ele>
        <time>2026-06-29T12:55:21.000Z</time>
      </trkpt>
      <trkpt lat="45.89895" lon="3.03011">
        <ele>587.88</ele>
        <time>2026-06-29T12:55:33.000Z</time>
      </trkpt>
      <trkpt lat="45.89897" lon="3.02996">
        <ele>585.37</ele>
        <time>2026-06-29T12:55:43.000Z</time>
      </trkpt>
      <trkpt lat="45.89894" lon="3.0298">
        <ele>585.94</ele>
        <time>2026-06-29T12:55:53.000Z</time>
      </trkpt>
      <trkpt lat="45.899" lon="3.0297">
        <ele>583.98</ele>
        <time>2026-06-29T12:56:04.000Z</time>
      </trkpt>
      <trkpt lat="45.89905" lon="3.02958">
        <ele>591.56</ele>
        <time>2026-06-29T12:56:36.000Z</time>
      </trkpt>
      <trkpt lat="45.89911" lon="3.02948">
        <ele>590.99</ele>
        <time>2026-06-29T12:56:46.000Z</time>
      </trkpt>
      <trkpt lat="45.89912" lon="3.02935">
        <ele>596.62</ele>
        <time>2026-06-29T12:57:09.000Z</time>
      </trkpt>
      <trkpt lat="45.89912" lon="3.02921">
        <ele>602.04</ele>
        <time>2026-06-29T12:57:19.000Z</time>
      </trkpt>
      <trkpt lat="45.89915" lon="3.02909">
        <ele>599.91</ele>
        <time>2026-06-29T12:57:32.000Z</time>
      </trkpt>
      <trkpt lat="45.8992" lon="3.02898">
        <ele>598.73</ele>
        <time>2026-06-29T12:57:42.000Z</time>
      </trkpt>
      <trkpt lat="45.89918" lon="3.02885">
        <ele>599.67</ele>
        <time>2026-06-29T12:57:57.000Z</time>
      </trkpt>
      <trkpt lat="45.89917" lon="3.02872">
        <ele>602.59</ele>
        <time>2026-06-29T12:58:17.000Z</time>
      </trkpt>
      <trkpt lat="45.89924" lon="3.02862">
        <ele>599.57</ele>
        <time>2026-06-29T12:58:29.000Z</time>
      </trkpt>
      <trkpt lat="45.89927" lon="3.02849">
        <ele>601.23</ele>
        <time>2026-06-29T12:58:42.000Z</time>
      </trkpt>
      <trkpt lat="45.89929" lon="3.02836">
        <ele>600.71</ele>
        <time>2026-06-29T12:58:53.000Z</time>
      </trkpt>
      <trkpt lat="45.89931" lon="3.02823">
        <ele>601.47</ele>
        <time>2026-06-29T12:59:06.000Z</time>
      </trkpt>
      <trkpt lat="45.89936" lon="3.02811">
        <ele>601.97</ele>
        <time>2026-06-29T12:59:16.000Z</time>
      </trkpt>
      <trkpt lat="45.8994" lon="3.02799">
        <ele>602.31</ele>
        <time>2026-06-29T12:59:27.000Z</time>
      </trkpt>
      <trkpt lat="45.89949" lon="3.02795">
        <ele>602.72</ele>
        <time>2026-06-29T13:00:03.000Z</time>
      </trkpt>
      <trkpt lat="45.89958" lon="3.02799">
        <ele>606.12</ele>
        <time>2026-06-29T13:00:38.000Z</time>
      </trkpt>
      <trkpt lat="45.89952" lon="3.0279">
        <ele>607.2</ele>
        <time>2026-06-29T13:03:12.000Z</time>
      </trkpt>
      <trkpt lat="45.89946" lon="3.028">
        <ele>602.66</ele>
        <time>2026-06-29T13:05:04.000Z</time>
      </trkpt>
      <trkpt lat="45.89935" lon="3.02797">
        <ele>606.61</ele>
        <time>2026-06-29T13:05:38.000Z</time>
      </trkpt>
      <trkpt lat="45.89941" lon="3.02787">
        <ele>605</ele>
        <time>2026-06-29T13:05:58.000Z</time>
      </trkpt>
      <trkpt lat="45.89942" lon="3.02774">
        <ele>602.66</ele>
        <time>2026-06-29T13:06:11.000Z</time>
      </trkpt>
      <trkpt lat="45.89948" lon="3.02763">
        <ele>600.92</ele>
        <time>2026-06-29T13:06:29.000Z</time>
      </trkpt>
      <trkpt lat="45.89948" lon="3.02749">
        <ele>603.97</ele>
        <time>2026-06-29T13:06:43.000Z</time>
      </trkpt>
      <trkpt lat="45.8994" lon="3.02741">
        <ele>607.56</ele>
        <time>2026-06-29T13:06:58.000Z</time>
      </trkpt>
      <trkpt lat="45.89935" lon="3.0273">
        <ele>608.89</ele>
        <time>2026-06-29T13:07:21.000Z</time>
      </trkpt>
      <trkpt lat="45.89937" lon="3.02717">
        <ele>609.21</ele>
        <time>2026-06-29T13:07:37.000Z</time>
      </trkpt>
      <trkpt lat="45.89931" lon="3.02706">
        <ele>605.02</ele>
        <time>2026-06-29T13:07:58.000Z</time>
      </trkpt>
      <trkpt lat="45.89925" lon="3.02695">
        <ele>601.86</ele>
        <time>2026-06-29T13:08:11.000Z</time>
      </trkpt>
      <trkpt lat="45.8992" lon="3.02683">
        <ele>599.15</ele>
        <time>2026-06-29T13:08:25.000Z</time>
      </trkpt>
      <trkpt lat="45.89924" lon="3.0267">
        <ele>603.57</ele>
        <time>2026-06-29T13:08:36.000Z</time>
      </trkpt>
      <trkpt lat="45.89921" lon="3.02658">
        <ele>596.74</ele>
        <time>2026-06-29T13:08:47.000Z</time>
      </trkpt>
      <trkpt lat="45.89921" lon="3.02644">
        <ele>600.54</ele>
        <time>2026-06-29T13:09:12.000Z</time>
      </trkpt>
      <trkpt lat="45.89923" lon="3.0263">
        <ele>600.35</ele>
        <time>2026-06-29T13:09:28.000Z</time>
      </trkpt>
      <trkpt lat="45.89922" lon="3.02615">
        <ele>603.21</ele>
        <time>2026-06-29T13:09:42.000Z</time>
      </trkpt>
      <trkpt lat="45.89924" lon="3.02602">
        <ele>599.11</ele>
        <time>2026-06-29T13:09:55.000Z</time>
      </trkpt>
      <trkpt lat="45.89927" lon="3.02589">
        <ele>595.41</ele>
        <time>2026-06-29T13:10:09.000Z</time>
      </trkpt>
      <trkpt lat="45.89921" lon="3.02577">
        <ele>595.84</ele>
        <time>2026-06-29T13:10:22.000Z</time>
      </trkpt>
      <trkpt lat="45.89914" lon="3.02567">
        <ele>596.51</ele>
        <time>2026-06-29T13:10:34.000Z</time>
      </trkpt>
      <trkpt lat="45.8991" lon="3.02553">
        <ele>593.33</ele>
        <time>2026-06-29T13:10:44.000Z</time>
      </trkpt>
      <trkpt lat="45.89908" lon="3.0254">
        <ele>594.4</ele>
        <time>2026-06-29T13:10:56.000Z</time>
      </trkpt>
      <trkpt lat="45.89905" lon="3.02526">
        <ele>599.8</ele>
        <time>2026-06-29T13:11:12.000Z</time>
      </trkpt>
      <trkpt lat="45.89902" lon="3.02514">
        <ele>600.73</ele>
        <time>2026-06-29T13:11:23.000Z</time>
      </trkpt>
      <trkpt lat="45.89896" lon="3.02504">
        <ele>597.94</ele>
        <time>2026-06-29T13:11:36.000Z</time>
      </trkpt>
      <trkpt lat="45.89892" lon="3.02492">
        <ele>603.01</ele>
        <time>2026-06-29T13:11:48.000Z</time>
      </trkpt>
      <trkpt lat="45.8989" lon="3.02479">
        <ele>607.07</ele>
        <time>2026-06-29T13:12:01.000Z</time>
      </trkpt>
      <trkpt lat="45.8989" lon="3.02465">
        <ele>604.77</ele>
        <time>2026-06-29T13:12:16.000Z</time>
      </trkpt>
      <trkpt lat="45.89892" lon="3.02452">
        <ele>605.64</ele>
        <time>2026-06-29T13:12:32.000Z</time>
      </trkpt>
      <trkpt lat="45.89898" lon="3.02442">
        <ele>610.68</ele>
        <time>2026-06-29T13:12:49.000Z</time>
      </trkpt>
      <trkpt lat="45.89902" lon="3.0243">
        <ele>610.95</ele>
        <time>2026-06-29T13:13:09.000Z</time>
      </trkpt>
      <trkpt lat="45.89905" lon="3.02417">
        <ele>611.97</ele>
        <time>2026-06-29T13:13:33.000Z</time>
      </trkpt>
      <trkpt lat="45.89904" lon="3.02402">
        <ele>614.35</ele>
        <time>2026-06-29T13:13:48.000Z</time>
      </trkpt>
      <trkpt lat="45.899" lon="3.0239">
        <ele>614.3</ele>
        <time>2026-06-29T13:14:13.000Z</time>
      </trkpt>
      <trkpt lat="45.89903" lon="3.02376">
        <ele>610.9</ele>
        <time>2026-06-29T13:14:23.000Z</time>
      </trkpt>
      <trkpt lat="45.89903" lon="3.02361">
        <ele>613.55</ele>
        <time>2026-06-29T13:14:33.000Z</time>
      </trkpt>
      <trkpt lat="45.89913" lon="3.02361">
        <ele>614.2</ele>
        <time>2026-06-29T13:14:54.000Z</time>
      </trkpt>
      <trkpt lat="45.89922" lon="3.02361">
        <ele>616.13</ele>
        <time>2026-06-29T13:15:07.000Z</time>
      </trkpt>
      <trkpt lat="45.8993" lon="3.02356">
        <ele>606.32</ele>
        <time>2026-06-29T13:15:57.000Z</time>
      </trkpt>
      <trkpt lat="45.89922" lon="3.02351">
        <ele>617.17</ele>
        <time>2026-06-29T13:21:22.000Z</time>
      </trkpt>
      <trkpt lat="45.89919" lon="3.02338">
        <ele>618.31</ele>
        <time>2026-06-29T13:23:27.000Z</time>
      </trkpt>
      <trkpt lat="45.89928" lon="3.02338">
        <ele>614</ele>
        <time>2026-06-29T13:25:51.000Z</time>
      </trkpt>
      <trkpt lat="45.89934" lon="3.02348">
        <ele>617.09</ele>
        <time>2026-06-29T13:26:39.000Z</time>
      </trkpt>
      <trkpt lat="45.89928" lon="3.02357">
        <ele>614.3</ele>
        <time>2026-06-29T13:27:07.000Z</time>
      </trkpt>
      <trkpt lat="45.89918" lon="3.02356">
        <ele>613.31</ele>
        <time>2026-06-29T13:27:23.000Z</time>
      </trkpt>
      <trkpt lat="45.89911" lon="3.02347">
        <ele>613.63</ele>
        <time>2026-06-29T13:27:38.000Z</time>
      </trkpt>
      <trkpt lat="45.8992" lon="3.02352">
        <ele>610.01</ele>
        <time>2026-06-29T13:28:31.000Z</time>
      </trkpt>
      <trkpt lat="45.89929" lon="3.02352">
        <ele>611.67</ele>
        <time>2026-06-29T13:29:03.000Z</time>
      </trkpt>
      <trkpt lat="45.89937" lon="3.02344">
        <ele>609.44</ele>
        <time>2026-06-29T13:29:24.000Z</time>
      </trkpt>
      <trkpt lat="45.89946" lon="3.02339">
        <ele>609.37</ele>
        <time>2026-06-29T13:29:55.000Z</time>
      </trkpt>
      <trkpt lat="45.89955" lon="3.02344">
        <ele>613.22</ele>
        <time>2026-06-29T13:30:35.000Z</time>
      </trkpt>
      <trkpt lat="45.89964" lon="3.02342">
        <ele>609.95</ele>
        <time>2026-06-29T13:30:46.000Z</time>
      </trkpt>
      <trkpt lat="45.89975" lon="3.02333">
        <ele>614.22</ele>
        <time>2026-06-29T13:30:56.000Z</time>
      </trkpt>
      <trkpt lat="45.89984" lon="3.02334">
        <ele>613.33</ele>
        <time>2026-06-29T13:31:06.000Z</time>
      </trkpt>
      <trkpt lat="45.89993" lon="3.02339">
        <ele>613.47</ele>
        <time>2026-06-29T13:31:16.000Z</time>
      </trkpt>
      <trkpt lat="45.90002" lon="3.02339">
        <ele>615.15</ele>
        <time>2026-06-29T13:31:29.000Z</time>
      </trkpt>
      <trkpt lat="45.90012" lon="3.02333">
        <ele>618.22</ele>
        <time>2026-06-29T13:32:02.000Z</time>
      </trkpt>
      <trkpt lat="45.90004" lon="3.02327">
        <ele>616.38</ele>
        <time>2026-06-29T13:32:55.000Z</time>
      </trkpt>
      <trkpt lat="45.90013" lon="3.02323">
        <ele>621.58</ele>
        <time>2026-06-29T13:33:23.000Z</time>
      </trkpt>
      <trkpt lat="45.90023" lon="3.02324">
        <ele>621.9</ele>
        <time>2026-06-29T13:33:35.000Z</time>
      </trkpt>
      <trkpt lat="45.90042" lon="3.02322">
        <ele>632.95</ele>
        <time>2026-06-29T13:53:59.000Z</time>
      </trkpt>
      <trkpt lat="45.90033" lon="3.02323">
        <ele>634.18</ele>
        <time>2026-06-29T13:56:32.000Z</time>
      </trkpt>
      <trkpt lat="45.90023" lon="3.0232">
        <ele>628.95</ele>
        <time>2026-06-29T13:58:37.000Z</time>
      </trkpt>
      <trkpt lat="45.90014" lon="3.02317">
        <ele>631.43</ele>
        <time>2026-06-29T13:58:50.000Z</time>
      </trkpt>
      <trkpt lat="45.90006" lon="3.02316">
        <ele>628.48</ele>
        <time>2026-06-29T13:59:42.000Z</time>
      </trkpt>
      <trkpt lat="45.90001" lon="3.02328">
        <ele>627.87</ele>
        <time>2026-06-29T14:00:04.000Z</time>
      </trkpt>
      <trkpt lat="45.90007" lon="3.02339">
        <ele>627.97</ele>
        <time>2026-06-29T14:01:57.000Z</time>
      </trkpt>
      <trkpt lat="45.90006" lon="3.02326">
        <ele>623.71</ele>
        <time>2026-06-29T14:03:05.000Z</time>
      </trkpt>
      <trkpt lat="45.90013" lon="3.02318">
        <ele>624.55</ele>
        <time>2026-06-29T14:03:16.000Z</time>
      </trkpt>
      <trkpt lat="45.90022" lon="3.02315">
        <ele>626.09</ele>
        <time>2026-06-29T14:03:43.000Z</time>
      </trkpt>
      <trkpt lat="45.90031" lon="3.02321">
        <ele>617.48</ele>
        <time>2026-06-29T14:04:44.000Z</time>
      </trkpt>
      <trkpt lat="45.9004" lon="3.0232">
        <ele>621.57</ele>
        <time>2026-06-29T14:04:54.000Z</time>
      </trkpt>
      <trkpt lat="45.90048" lon="3.02313">
        <ele>619.68</ele>
        <time>2026-06-29T14:05:10.000Z</time>
      </trkpt>
      <trkpt lat="45.90058" lon="3.0231">
        <ele>622.65</ele>
        <time>2026-06-29T14:05:34.000Z</time>
      </trkpt>
      <trkpt lat="45.90065" lon="3.02318">
        <ele>632.21</ele>
        <time>2026-06-29T14:06:16.000Z</time>
      </trkpt>
      <trkpt lat="45.90074" lon="3.02319">
        <ele>629.64</ele>
        <time>2026-06-29T14:06:37.000Z</time>
      </trkpt>
      <trkpt lat="45.90081" lon="3.02309">
        <ele>628.96</ele>
        <time>2026-06-29T14:07:10.000Z</time>
      </trkpt>
      <trkpt lat="45.90073" lon="3.023">
        <ele>631.53</ele>
        <time>2026-06-29T14:07:45.000Z</time>
      </trkpt>
      <trkpt lat="45.90068" lon="3.02289">
        <ele>631.01</ele>
        <time>2026-06-29T14:08:04.000Z</time>
      </trkpt>
      <trkpt lat="45.90059" lon="3.02295">
        <ele>633.46</ele>
        <time>2026-06-29T14:08:14.000Z</time>
      </trkpt>
      <trkpt lat="45.90052" lon="3.02285">
        <ele>635.7</ele>
        <time>2026-06-29T14:08:34.000Z</time>
      </trkpt>
      <trkpt lat="45.90044" lon="3.02279">
        <ele>635.83</ele>
        <time>2026-06-29T14:09:10.000Z</time>
      </trkpt>
      <trkpt lat="45.90038" lon="3.0227">
        <ele>630.71</ele>
        <time>2026-06-29T14:09:52.000Z</time>
      </trkpt>
      <trkpt lat="45.90029" lon="3.02276">
        <ele>635.3</ele>
        <time>2026-06-29T14:10:10.000Z</time>
      </trkpt>
      <trkpt lat="45.9002" lon="3.02274">
        <ele>638</ele>
        <time>2026-06-29T14:10:33.000Z</time>
      </trkpt>
      <trkpt lat="45.90011" lon="3.02273">
        <ele>635.04</ele>
        <time>2026-06-29T14:10:49.000Z</time>
      </trkpt>
      <trkpt lat="45.90002" lon="3.02274">
        <ele>638.44</ele>
        <time>2026-06-29T14:11:06.000Z</time>
      </trkpt>
      <trkpt lat="45.89996" lon="3.02285">
        <ele>644.68</ele>
        <time>2026-06-29T14:11:16.000Z</time>
      </trkpt>
      <trkpt lat="45.89987" lon="3.02288">
        <ele>652.03</ele>
        <time>2026-06-29T14:11:31.000Z</time>
      </trkpt>
      <trkpt lat="45.89978" lon="3.02282">
        <ele>646.46</ele>
        <time>2026-06-29T14:11:57.000Z</time>
      </trkpt>
      <trkpt lat="45.89969" lon="3.02281">
        <ele>650.84</ele>
        <time>2026-06-29T14:12:57.000Z</time>
      </trkpt>
      <trkpt lat="45.89959" lon="3.02282">
        <ele>650.06</ele>
        <time>2026-06-29T14:13:49.000Z</time>
      </trkpt>
      <trkpt lat="45.8995" lon="3.02278">
        <ele>650.57</ele>
        <time>2026-06-29T14:14:21.000Z</time>
      </trkpt>
      <trkpt lat="45.89943" lon="3.02285">
        <ele>649.79</ele>
        <time>2026-06-29T14:15:02.000Z</time>
      </trkpt>
      <trkpt lat="45.89933" lon="3.02285">
        <ele>642.57</ele>
        <time>2026-06-29T14:15:52.000Z</time>
      </trkpt>
      <trkpt lat="45.89926" lon="3.02277">
        <ele>634.97</ele>
        <time>2026-06-29T14:16:13.000Z</time>
      </trkpt>
      <trkpt lat="45.89918" lon="3.02284">
        <ele>632.36</ele>
        <time>2026-06-29T14:16:43.000Z</time>
      </trkpt>
      <trkpt lat="45.89909" lon="3.02291">
        <ele>632.71</ele>
        <time>2026-06-29T14:17:24.000Z</time>
      </trkpt>
      <trkpt lat="45.89901" lon="3.02297">
        <ele>631.34</ele>
        <time>2026-06-29T14:18:22.000Z</time>
      </trkpt>
      <trkpt lat="45.89894" lon="3.02306">
        <ele>630.88</ele>
        <time>2026-06-29T14:18:32.000Z</time>
      </trkpt>
      <trkpt lat="45.89887" lon="3.02315">
        <ele>631.35</ele>
        <time>2026-06-29T14:18:42.000Z</time>
      </trkpt>
      <trkpt lat="45.89879" lon="3.02322">
        <ele>631.5</ele>
        <time>2026-06-29T14:18:57.000Z</time>
      </trkpt>
      <trkpt lat="45.8987" lon="3.02326">
        <ele>630.31</ele>
        <time>2026-06-29T14:19:20.000Z</time>
      </trkpt>
      <trkpt lat="45.89866" lon="3.02337">
        <ele>628.3</ele>
        <time>2026-06-29T14:21:42.000Z</time>
      </trkpt>
      <trkpt lat="45.89856" lon="3.02341">
        <ele>627.22</ele>
        <time>2026-06-29T14:23:43.000Z</time>
      </trkpt>
      <trkpt lat="45.89847" lon="3.02342">
        <ele>624.1</ele>
        <time>2026-06-29T14:24:10.000Z</time>
      </trkpt>
      <trkpt lat="45.89846" lon="3.02355">
        <ele>630.74</ele>
        <time>2026-06-29T14:24:42.000Z</time>
      </trkpt>
      <trkpt lat="45.89843" lon="3.02367">
        <ele>638.37</ele>
        <time>2026-06-29T14:25:18.000Z</time>
      </trkpt>
      <trkpt lat="45.89835" lon="3.02375">
        <ele>640.94</ele>
        <time>2026-06-29T14:25:42.000Z</time>
      </trkpt>
      <trkpt lat="45.89825" lon="3.02373">
        <ele>641.16</ele>
        <time>2026-06-29T14:26:20.000Z</time>
      </trkpt>
      <trkpt lat="45.89822" lon="3.02385">
        <ele>640.74</ele>
        <time>2026-06-29T14:26:42.000Z</time>
      </trkpt>
      <trkpt lat="45.89816" lon="3.02394">
        <ele>644.74</ele>
        <time>2026-06-29T14:26:59.000Z</time>
      </trkpt>
      <trkpt lat="45.89814" lon="3.02408">
        <ele>642.95</ele>
        <time>2026-06-29T14:27:34.000Z</time>
      </trkpt>
      <trkpt lat="45.8981" lon="3.0242">
        <ele>642.02</ele>
        <time>2026-06-29T14:27:55.000Z</time>
      </trkpt>
      <trkpt lat="45.89803" lon="3.02429">
        <ele>642.33</ele>
        <time>2026-06-29T14:28:12.000Z</time>
      </trkpt>
      <trkpt lat="45.89796" lon="3.02436">
        <ele>643.89</ele>
        <time>2026-06-29T14:28:55.000Z</time>
      </trkpt>
      <trkpt lat="45.8979" lon="3.02447">
        <ele>643.35</ele>
        <time>2026-06-29T14:34:10.000Z</time>
      </trkpt>
      <trkpt lat="45.89787" lon="3.0246">
        <ele>645.76</ele>
        <time>2026-06-29T14:34:32.000Z</time>
      </trkpt>
      <trkpt lat="45.8978" lon="3.02469">
        <ele>644.12</ele>
        <time>2026-06-29T14:34:49.000Z</time>
      </trkpt>
      <trkpt lat="45.89771" lon="3.02475">
        <ele>646.07</ele>
        <time>2026-06-29T14:35:02.000Z</time>
      </trkpt>
      <trkpt lat="45.89765" lon="3.02485">
        <ele>647.91</ele>
        <time>2026-06-29T14:35:14.000Z</time>
      </trkpt>
      <trkpt lat="45.89759" lon="3.02495">
        <ele>648.3</ele>
        <time>2026-06-29T14:35:26.000Z</time>
      </trkpt>
      <trkpt lat="45.89754" lon="3.02505">
        <ele>647.31</ele>
        <time>2026-06-29T14:42:23.000Z</time>
      </trkpt>
      <trkpt lat="45.8975" lon="3.02518">
        <ele>646.31</ele>
        <time>2026-06-29T14:42:40.000Z</time>
      </trkpt>
      <trkpt lat="45.89745" lon="3.02528">
        <ele>642.67</ele>
        <time>2026-06-29T14:43:14.000Z</time>
      </trkpt>
      <trkpt lat="45.89737" lon="3.02541">
        <ele>641.82</ele>
        <time>2026-06-29T14:43:24.000Z</time>
      </trkpt>
      <trkpt lat="45.89727" lon="3.02545">
        <ele>643.96</ele>
        <time>2026-06-29T14:43:34.000Z</time>
      </trkpt>
      <trkpt lat="45.89721" lon="3.02556">
        <ele>643.82</ele>
        <time>2026-06-29T14:43:50.000Z</time>
      </trkpt>
      <trkpt lat="45.89712" lon="3.02555">
        <ele>642.74</ele>
        <time>2026-06-29T14:44:05.000Z</time>
      </trkpt>
      <trkpt lat="45.89702" lon="3.02557">
        <ele>642.76</ele>
        <time>2026-06-29T14:44:16.000Z</time>
      </trkpt>
      <trkpt lat="45.89696" lon="3.02566">
        <ele>639.15</ele>
        <time>2026-06-29T14:44:28.000Z</time>
      </trkpt>
      <trkpt lat="45.89692" lon="3.02578">
        <ele>632.95</ele>
        <time>2026-06-29T14:44:40.000Z</time>
      </trkpt>
      <trkpt lat="45.89699" lon="3.02589">
        <ele>628.32</ele>
        <time>2026-06-29T14:44:53.000Z</time>
      </trkpt>
      <trkpt lat="45.89714" lon="3.02591">
        <ele>632.7</ele>
        <time>2026-06-29T14:45:03.000Z</time>
      </trkpt>
      <trkpt lat="45.89722" lon="3.02602">
        <ele>631.07</ele>
        <time>2026-06-29T14:45:13.000Z</time>
      </trkpt>
      <trkpt lat="45.8973" lon="3.0261">
        <ele>630.36</ele>
        <time>2026-06-29T14:45:23.000Z</time>
      </trkpt>
      <trkpt lat="45.89739" lon="3.02618">
        <ele>629.37</ele>
        <time>2026-06-29T14:45:33.000Z</time>
      </trkpt>
      <trkpt lat="45.89748" lon="3.02624">
        <ele>628.95</ele>
        <time>2026-06-29T14:45:43.000Z</time>
      </trkpt>
      <trkpt lat="45.89757" lon="3.0263">
        <ele>629.65</ele>
        <time>2026-06-29T14:45:53.000Z</time>
      </trkpt>
      <trkpt lat="45.89766" lon="3.02635">
        <ele>629.37</ele>
        <time>2026-06-29T14:46:04.000Z</time>
      </trkpt>
      <trkpt lat="45.89774" lon="3.02641">
        <ele>627.77</ele>
        <time>2026-06-29T14:46:18.000Z</time>
      </trkpt>
      <trkpt lat="45.89782" lon="3.02651">
        <ele>629.33</ele>
        <time>2026-06-29T14:46:28.000Z</time>
      </trkpt>
      <trkpt lat="45.89789" lon="3.02661">
        <ele>627.74</ele>
        <time>2026-06-29T14:46:39.000Z</time>
      </trkpt>
      <trkpt lat="45.89795" lon="3.02672">
        <ele>629.8</ele>
        <time>2026-06-29T14:46:52.000Z</time>
      </trkpt>
      <trkpt lat="45.89801" lon="3.02682">
        <ele>629.75</ele>
        <time>2026-06-29T14:47:06.000Z</time>
      </trkpt>
      <trkpt lat="45.89804" lon="3.02694">
        <ele>630.92</ele>
        <time>2026-06-29T14:47:23.000Z</time>
      </trkpt>
      <trkpt lat="45.89807" lon="3.02707">
        <ele>635.53</ele>
        <time>2026-06-29T14:49:07.000Z</time>
      </trkpt>
      <trkpt lat="45.89808" lon="3.0272">
        <ele>638.92</ele>
        <time>2026-06-29T14:49:24.000Z</time>
      </trkpt>
      <trkpt lat="45.89807" lon="3.02733">
        <ele>636.96</ele>
        <time>2026-06-29T14:49:42.000Z</time>
      </trkpt>
      <trkpt lat="45.89805" lon="3.02746">
        <ele>636.98</ele>
        <time>2026-06-29T14:49:59.000Z</time>
      </trkpt>
      <trkpt lat="45.898" lon="3.02758">
        <ele>639.68</ele>
        <time>2026-06-29T14:50:10.000Z</time>
      </trkpt>
      <trkpt lat="45.89798" lon="3.02771">
        <ele>641.81</ele>
        <time>2026-06-29T14:50:29.000Z</time>
      </trkpt>
      <trkpt lat="45.89796" lon="3.02783">
        <ele>645.24</ele>
        <time>2026-06-29T14:53:26.000Z</time>
      </trkpt>
      <trkpt lat="45.898" lon="3.02796">
        <ele>646.94</ele>
        <time>2026-06-29T14:53:41.000Z</time>
      </trkpt>
      <trkpt lat="45.89799" lon="3.02809">
        <ele>647.41</ele>
        <time>2026-06-29T14:53:54.000Z</time>
      </trkpt>
      <trkpt lat="45.89798" lon="3.02822">
        <ele>649.74</ele>
        <time>2026-06-29T14:54:08.000Z</time>
      </trkpt>
      <trkpt lat="45.89796" lon="3.02836">
        <ele>651.27</ele>
        <time>2026-06-29T14:54:19.000Z</time>
      </trkpt>
      <trkpt lat="45.89792" lon="3.02848">
        <ele>652.77</ele>
        <time>2026-06-29T14:54:29.000Z</time>
      </trkpt>
      <trkpt lat="45.89783" lon="3.02844">
        <ele>651.97</ele>
        <time>2026-06-29T14:54:39.000Z</time>
      </trkpt>
      <trkpt lat="45.89781" lon="3.02829">
        <ele>656.19</ele>
        <time>2026-06-29T14:54:49.000Z</time>
      </trkpt>
      <trkpt lat="45.89776" lon="3.02816">
        <ele>656.39</ele>
        <time>2026-06-29T14:55:01.000Z</time>
      </trkpt>
      <trkpt lat="45.89765" lon="3.02805">
        <ele>661.09</ele>
        <time>2026-06-29T14:55:11.000Z</time>
      </trkpt>
      <trkpt lat="45.89767" lon="3.02793">
        <ele>659.7</ele>
        <time>2026-06-29T14:55:21.000Z</time>
      </trkpt>
      <trkpt lat="45.89763" lon="3.02781">
        <ele>662.01</ele>
        <time>2026-06-29T14:55:35.000Z</time>
      </trkpt>
      <trkpt lat="45.89762" lon="3.02768">
        <ele>663.05</ele>
        <time>2026-06-29T14:56:16.000Z</time>
      </trkpt>
      <trkpt lat="45.8976" lon="3.02755">
        <ele>659.37</ele>
        <time>2026-06-29T14:56:29.000Z</time>
      </trkpt>
      <trkpt lat="45.89758" lon="3.02741">
        <ele>658.17</ele>
        <time>2026-06-29T14:56:40.000Z</time>
      </trkpt>
      <trkpt lat="45.89755" lon="3.02729">
        <ele>658.24</ele>
        <time>2026-06-29T14:56:50.000Z</time>
      </trkpt>
      <trkpt lat="45.89748" lon="3.02719">
        <ele>658.95</ele>
        <time>2026-06-29T14:57:03.000Z</time>
      </trkpt>
      <trkpt lat="45.89738" lon="3.02718">
        <ele>661.96</ele>
        <time>2026-06-29T14:57:19.000Z</time>
      </trkpt>
      <trkpt lat="45.89732" lon="3.02707">
        <ele>660.35</ele>
        <time>2026-06-29T14:57:38.000Z</time>
      </trkpt>
      <trkpt lat="45.89724" lon="3.027">
        <ele>660.19</ele>
        <time>2026-06-29T14:57:50.000Z</time>
      </trkpt>
      <trkpt lat="45.89716" lon="3.02694">
        <ele>660.81</ele>
        <time>2026-06-29T14:58:01.000Z</time>
      </trkpt>
      <trkpt lat="45.89708" lon="3.02685">
        <ele>660.06</ele>
        <time>2026-06-29T14:58:11.000Z</time>
      </trkpt>
      <trkpt lat="45.897" lon="3.02677">
        <ele>659.41</ele>
        <time>2026-06-29T14:58:21.000Z</time>
      </trkpt>
      <trkpt lat="45.89691" lon="3.02672">
        <ele>657.39</ele>
        <time>2026-06-29T14:58:38.000Z</time>
      </trkpt>
      <trkpt lat="45.89682" lon="3.02671">
        <ele>658.19</ele>
        <time>2026-06-29T14:58:53.000Z</time>
      </trkpt>
      <trkpt lat="45.89672" lon="3.02669">
        <ele>660.4</ele>
        <time>2026-06-29T14:59:07.000Z</time>
      </trkpt>
      <trkpt lat="45.89665" lon="3.02662">
        <ele>661.09</ele>
        <time>2026-06-29T14:59:20.000Z</time>
      </trkpt>
      <trkpt lat="45.89656" lon="3.02663">
        <ele>663.31</ele>
        <time>2026-06-29T14:59:38.000Z</time>
      </trkpt>
      <trkpt lat="45.89659" lon="3.02651">
        <ele>663.51</ele>
        <time>2026-06-29T15:01:34.000Z</time>
      </trkpt>
      <trkpt lat="45.8965" lon="3.02651">
        <ele>671.72</ele>
        <time>2026-06-29T15:02:23.000Z</time>
      </trkpt>
      <trkpt lat="45.89645" lon="3.0264">
        <ele>669.49</ele>
        <time>2026-06-29T15:02:53.000Z</time>
      </trkpt>
      <trkpt lat="45.89638" lon="3.02631">
        <ele>670.65</ele>
        <time>2026-06-29T15:03:08.000Z</time>
      </trkpt>
      <trkpt lat="45.89632" lon="3.02621">
        <ele>669.92</ele>
        <time>2026-06-29T15:03:21.000Z</time>
      </trkpt>
      <trkpt lat="45.89623" lon="3.02623">
        <ele>670.56</ele>
        <time>2026-06-29T15:03:34.000Z</time>
      </trkpt>
      <trkpt lat="45.89622" lon="3.02636">
        <ele>672.68</ele>
        <time>2026-06-29T15:03:49.000Z</time>
      </trkpt>
      <trkpt lat="45.89618" lon="3.02647">
        <ele>674.32</ele>
        <time>2026-06-29T15:04:07.000Z</time>
      </trkpt>
      <trkpt lat="45.89616" lon="3.0266">
        <ele>677.74</ele>
        <time>2026-06-29T15:04:23.000Z</time>
      </trkpt>
      <trkpt lat="45.89612" lon="3.02672">
        <ele>681.94</ele>
        <time>2026-06-29T15:04:41.000Z</time>
      </trkpt>
      <trkpt lat="45.89609" lon="3.02684">
        <ele>681.62</ele>
        <time>2026-06-29T15:04:59.000Z</time>
      </trkpt>
      <trkpt lat="45.89601" lon="3.02691">
        <ele>684.8</ele>
        <time>2026-06-29T15:05:24.000Z</time>
      </trkpt>
      <trkpt lat="45.89597" lon="3.02703">
        <ele>684.28</ele>
        <time>2026-06-29T15:05:41.000Z</time>
      </trkpt>
      <trkpt lat="45.89593" lon="3.02715">
        <ele>682.59</ele>
        <time>2026-06-29T15:05:54.000Z</time>
      </trkpt>
      <trkpt lat="45.89584" lon="3.02723">
        <ele>686.57</ele>
        <time>2026-06-29T15:06:31.000Z</time>
      </trkpt>
      <trkpt lat="45.89576" lon="3.02726">
        <ele>685.01</ele>
        <time>2026-06-29T15:10:32.000Z</time>
      </trkpt>
      <trkpt lat="45.89569" lon="3.02735">
        <ele>683.59</ele>
        <time>2026-06-29T15:11:04.000Z</time>
      </trkpt>
      <trkpt lat="45.89559" lon="3.02735">
        <ele>684.21</ele>
        <time>2026-06-29T15:11:19.000Z</time>
      </trkpt>
      <trkpt lat="45.8955" lon="3.02739">
        <ele>685.71</ele>
        <time>2026-06-29T15:11:34.000Z</time>
      </trkpt>
      <trkpt lat="45.89543" lon="3.02748">
        <ele>685.34</ele>
        <time>2026-06-29T15:11:47.000Z</time>
      </trkpt>
      <trkpt lat="45.89534" lon="3.02754">
        <ele>679.11</ele>
        <time>2026-06-29T15:12:07.000Z</time>
      </trkpt>
      <trkpt lat="45.89528" lon="3.02765">
        <ele>676.82</ele>
        <time>2026-06-29T15:12:28.000Z</time>
      </trkpt>
      <trkpt lat="45.89521" lon="3.02774">
        <ele>673.6</ele>
        <time>2026-06-29T15:12:40.000Z</time>
      </trkpt>
      <trkpt lat="45.89515" lon="3.02784">
        <ele>666.58</ele>
        <time>2026-06-29T15:12:54.000Z</time>
      </trkpt>
      <trkpt lat="45.89513" lon="3.02798">
        <ele>684.13</ele>
        <time>2026-06-29T15:16:14.000Z</time>
      </trkpt>
      <trkpt lat="45.89504" lon="3.02802">
        <ele>683.11</ele>
        <time>2026-06-29T15:16:24.000Z</time>
      </trkpt>
      <trkpt lat="45.89498" lon="3.02814">
        <ele>681.57</ele>
        <time>2026-06-29T15:16:40.000Z</time>
      </trkpt>
      <trkpt lat="45.89491" lon="3.02824">
        <ele>680.35</ele>
        <time>2026-06-29T15:16:51.000Z</time>
      </trkpt>
      <trkpt lat="45.89486" lon="3.02835">
        <ele>679.63</ele>
        <time>2026-06-29T15:17:01.000Z</time>
      </trkpt>
      <trkpt lat="45.89481" lon="3.02847">
        <ele>677.27</ele>
        <time>2026-06-29T15:17:11.000Z</time>
      </trkpt>
      <trkpt lat="45.89477" lon="3.02861">
        <ele>678.04</ele>
        <time>2026-06-29T15:17:21.000Z</time>
      </trkpt>
      <trkpt lat="45.89476" lon="3.02875">
        <ele>678.38</ele>
        <time>2026-06-29T15:17:32.000Z</time>
      </trkpt>
      <trkpt lat="45.89472" lon="3.02888">
        <ele>679.22</ele>
        <time>2026-06-29T15:17:45.000Z</time>
      </trkpt>
      <trkpt lat="45.8947" lon="3.02901">
        <ele>676.01</ele>
        <time>2026-06-29T15:17:57.000Z</time>
      </trkpt>
      <trkpt lat="45.89467" lon="3.02914">
        <ele>674.04</ele>
        <time>2026-06-29T15:18:10.000Z</time>
      </trkpt>
      <trkpt lat="45.8946" lon="3.02925">
        <ele>673.7</ele>
        <time>2026-06-29T15:18:21.000Z</time>
      </trkpt>
      <trkpt lat="45.8946" lon="3.02911">
        <ele>672.99</ele>
        <time>2026-06-29T15:18:35.000Z</time>
      </trkpt>
      <trkpt lat="45.89463" lon="3.02924">
        <ele>670.25</ele>
        <time>2026-06-29T15:19:15.000Z</time>
      </trkpt>
      <trkpt lat="45.89465" lon="3.02936">
        <ele>672.24</ele>
        <time>2026-06-29T15:19:26.000Z</time>
      </trkpt>
      <trkpt lat="45.89461" lon="3.02949">
        <ele>670.8</ele>
        <time>2026-06-29T15:19:39.000Z</time>
      </trkpt>
      <trkpt lat="45.89461" lon="3.02962">
        <ele>668.89</ele>
        <time>2026-06-29T15:20:00.000Z</time>
      </trkpt>
      <trkpt lat="45.89459" lon="3.02977">
        <ele>668.54</ele>
        <time>2026-06-29T15:20:10.000Z</time>
      </trkpt>
      <trkpt lat="45.89453" lon="3.02988">
        <ele>666.39</ele>
        <time>2026-06-29T15:20:21.000Z</time>
      </trkpt>
      <trkpt lat="45.89449" lon="3.03001">
        <ele>663.34</ele>
        <time>2026-06-29T15:20:32.000Z</time>
      </trkpt>
      <trkpt lat="45.89445" lon="3.03013">
        <ele>664.73</ele>
        <time>2026-06-29T15:20:59.000Z</time>
      </trkpt>
      <trkpt lat="45.89439" lon="3.03023">
        <ele>664.07</ele>
        <time>2026-06-29T15:21:09.000Z</time>
      </trkpt>
      <trkpt lat="45.89432" lon="3.03034">
        <ele>662.74</ele>
        <time>2026-06-29T15:21:19.000Z</time>
      </trkpt>
      <trkpt lat="45.89426" lon="3.03044">
        <ele>663.57</ele>
        <time>2026-06-29T15:21:30.000Z</time>
      </trkpt>
      <trkpt lat="45.8942" lon="3.03055">
        <ele>663.5</ele>
        <time>2026-06-29T15:21:41.000Z</time>
      </trkpt>
      <trkpt lat="45.89414" lon="3.03065">
        <ele>663.38</ele>
        <time>2026-06-29T15:21:54.000Z</time>
      </trkpt>
      <trkpt lat="45.89409" lon="3.03076">
        <ele>662.48</ele>
        <time>2026-06-29T15:22:06.000Z</time>
      </trkpt>
      <trkpt lat="45.89405" lon="3.03089">
        <ele>661.43</ele>
        <time>2026-06-29T15:22:18.000Z</time>
      </trkpt>
      <trkpt lat="45.89402" lon="3.03102">
        <ele>662.06</ele>
        <time>2026-06-29T15:22:30.000Z</time>
      </trkpt>
      <trkpt lat="45.89401" lon="3.03115">
        <ele>663.73</ele>
        <time>2026-06-29T15:22:42.000Z</time>
      </trkpt>
      <trkpt lat="45.89398" lon="3.03127">
        <ele>662.34</ele>
        <time>2026-06-29T15:23:05.000Z</time>
      </trkpt>
      <trkpt lat="45.89395" lon="3.03142">
        <ele>662.65</ele>
        <time>2026-06-29T15:23:15.000Z</time>
      </trkpt>
      <trkpt lat="45.89392" lon="3.03156">
        <ele>664.38</ele>
        <time>2026-06-29T15:23:25.000Z</time>
      </trkpt>
      <trkpt lat="45.89389" lon="3.03168">
        <ele>662.6</ele>
        <time>2026-06-29T15:23:37.000Z</time>
      </trkpt>
      <trkpt lat="45.89385" lon="3.03181">
        <ele>659.02</ele>
        <time>2026-06-29T15:23:53.000Z</time>
      </trkpt>
      <trkpt lat="45.89382" lon="3.03194">
        <ele>660.1</ele>
        <time>2026-06-29T15:24:20.000Z</time>
      </trkpt>
      <trkpt lat="45.89382" lon="3.03207">
        <ele>660.65</ele>
        <time>2026-06-29T15:24:30.000Z</time>
      </trkpt>
      <trkpt lat="45.89383" lon="3.03221">
        <ele>660.27</ele>
        <time>2026-06-29T15:24:43.000Z</time>
      </trkpt>
      <trkpt lat="45.89386" lon="3.03234">
        <ele>660.6</ele>
        <time>2026-06-29T15:24:53.000Z</time>
      </trkpt>
      <trkpt lat="45.89388" lon="3.03249">
        <ele>660.21</ele>
        <time>2026-06-29T15:25:03.000Z</time>
      </trkpt>
      <trkpt lat="45.89389" lon="3.03265">
        <ele>659.83</ele>
        <time>2026-06-29T15:25:13.000Z</time>
      </trkpt>
      <trkpt lat="45.89388" lon="3.0328">
        <ele>659.46</ele>
        <time>2026-06-29T15:25:23.000Z</time>
      </trkpt>
      <trkpt lat="45.8939" lon="3.03294">
        <ele>661.99</ele>
        <time>2026-06-29T15:27:32.000Z</time>
      </trkpt>
      <trkpt lat="45.89388" lon="3.0331">
        <ele>658.9</ele>
        <time>2026-06-29T15:27:42.000Z</time>
      </trkpt>
      <trkpt lat="45.89389" lon="3.03327">
        <ele>658.14</ele>
        <time>2026-06-29T15:27:52.000Z</time>
      </trkpt>
      <trkpt lat="45.89388" lon="3.03344">
        <ele>657.81</ele>
        <time>2026-06-29T15:28:02.000Z</time>
      </trkpt>
      <trkpt lat="45.89386" lon="3.0336">
        <ele>658.64</ele>
        <time>2026-06-29T15:28:12.000Z</time>
      </trkpt>
      <trkpt lat="45.89383" lon="3.03377">
        <ele>658.12</ele>
        <time>2026-06-29T15:28:22.000Z</time>
      </trkpt>
      <trkpt lat="45.89381" lon="3.03394">
        <ele>659.76</ele>
        <time>2026-06-29T15:28:32.000Z</time>
      </trkpt>
      <trkpt lat="45.89389" lon="3.03405">
        <ele>660.56</ele>
        <time>2026-06-29T15:28:42.000Z</time>
      </trkpt>
      <trkpt lat="45.894" lon="3.03403">
        <ele>661.56</ele>
        <time>2026-06-29T15:28:52.000Z</time>
      </trkpt>
      <trkpt lat="45.89411" lon="3.03402">
        <ele>659.16</ele>
        <time>2026-06-29T15:29:02.000Z</time>
      </trkpt>
      <trkpt lat="45.89421" lon="3.03402">
        <ele>659</ele>
        <time>2026-06-29T15:29:12.000Z</time>
      </trkpt>
      <trkpt lat="45.89431" lon="3.034">
        <ele>658.77</ele>
        <time>2026-06-29T15:29:22.000Z</time>
      </trkpt>
      <trkpt lat="45.89441" lon="3.03398">
        <ele>657.05</ele>
        <time>2026-06-29T15:29:32.000Z</time>
      </trkpt>
      <trkpt lat="45.89451" lon="3.03394">
        <ele>656.52</ele>
        <time>2026-06-29T15:29:42.000Z</time>
      </trkpt>
      <trkpt lat="45.89461" lon="3.03394">
        <ele>655.3</ele>
        <time>2026-06-29T15:29:52.000Z</time>
      </trkpt>
      <trkpt lat="45.89472" lon="3.0339">
        <ele>655.49</ele>
        <time>2026-06-29T15:30:02.000Z</time>
      </trkpt>
      <trkpt lat="45.89482" lon="3.03389">
        <ele>653.1</ele>
        <time>2026-06-29T15:30:12.000Z</time>
      </trkpt>
      <trkpt lat="45.89493" lon="3.03391">
        <ele>652.95</ele>
        <time>2026-06-29T15:30:22.000Z</time>
      </trkpt>
      <trkpt lat="45.89503" lon="3.03393">
        <ele>651.71</ele>
        <time>2026-06-29T15:30:32.000Z</time>
      </trkpt>
      <trkpt lat="45.89512" lon="3.03395">
        <ele>650.84</ele>
        <time>2026-06-29T15:30:43.000Z</time>
      </trkpt>
      <trkpt lat="45.89522" lon="3.03392">
        <ele>649.46</ele>
        <time>2026-06-29T15:30:53.000Z</time>
      </trkpt>
      <trkpt lat="45.8953" lon="3.03387">
        <ele>651.3</ele>
        <time>2026-06-29T15:31:04.000Z</time>
      </trkpt>
      <trkpt lat="45.8954" lon="3.03384">
        <ele>650.63</ele>
        <time>2026-06-29T15:31:15.000Z</time>
      </trkpt>
      <trkpt lat="45.89549" lon="3.03383">
        <ele>649.83</ele>
        <time>2026-06-29T15:31:25.000Z</time>
      </trkpt>
      <trkpt lat="45.89558" lon="3.03379">
        <ele>650.2</ele>
        <time>2026-06-29T15:31:39.000Z</time>
      </trkpt>
      <trkpt lat="45.89567" lon="3.03377">
        <ele>649.98</ele>
        <time>2026-06-29T15:31:49.000Z</time>
      </trkpt>
      <trkpt lat="45.89577" lon="3.03378">
        <ele>649.45</ele>
        <time>2026-06-29T15:31:59.000Z</time>
      </trkpt>
      <trkpt lat="45.89587" lon="3.03375">
        <ele>644.97</ele>
        <time>2026-06-29T15:32:09.000Z</time>
      </trkpt>
      <trkpt lat="45.89597" lon="3.03372">
        <ele>644.39</ele>
        <time>2026-06-29T15:32:19.000Z</time>
      </trkpt>
      <trkpt lat="45.89606" lon="3.03368">
        <ele>645.44</ele>
        <time>2026-06-29T15:32:29.000Z</time>
      </trkpt>
      <trkpt lat="45.89616" lon="3.03369">
        <ele>645.49</ele>
        <time>2026-06-29T15:32:39.000Z</time>
      </trkpt>
      <trkpt lat="45.89624" lon="3.03375">
        <ele>644.35</ele>
        <time>2026-06-29T15:32:49.000Z</time>
      </trkpt>
      <trkpt lat="45.89632" lon="3.03382">
        <ele>642.64</ele>
        <time>2026-06-29T15:32:59.000Z</time>
      </trkpt>
      <trkpt lat="45.8964" lon="3.03389">
        <ele>642.07</ele>
        <time>2026-06-29T15:33:09.000Z</time>
      </trkpt>
      <trkpt lat="45.89648" lon="3.03397">
        <ele>641.46</ele>
        <time>2026-06-29T15:33:19.000Z</time>
      </trkpt>
      <trkpt lat="45.89656" lon="3.03401">
        <ele>640.57</ele>
        <time>2026-06-29T15:33:30.000Z</time>
      </trkpt>
      <trkpt lat="45.89665" lon="3.03406">
        <ele>639.52</ele>
        <time>2026-06-29T15:33:41.000Z</time>
      </trkpt>
      <trkpt lat="45.89675" lon="3.03403">
        <ele>640.35</ele>
        <time>2026-06-29T15:33:53.000Z</time>
      </trkpt>
      <trkpt lat="45.89664" lon="3.03406">
        <ele>641.42</ele>
        <time>2026-06-29T15:34:39.000Z</time>
      </trkpt>
      <trkpt lat="45.89651" lon="3.03399">
        <ele>641.77</ele>
        <time>2026-06-29T15:34:49.000Z</time>
      </trkpt>
      <trkpt lat="45.89638" lon="3.03389">
        <ele>642.03</ele>
        <time>2026-06-29T15:34:59.000Z</time>
      </trkpt>
      <trkpt lat="45.89647" lon="3.03394">
        <ele>640.36</ele>
        <time>2026-06-29T15:35:30.000Z</time>
      </trkpt>
      <trkpt lat="45.89659" lon="3.03401">
        <ele>640.45</ele>
        <time>2026-06-29T15:35:40.000Z</time>
      </trkpt>
      <trkpt lat="45.89673" lon="3.03403">
        <ele>640.04</ele>
        <time>2026-06-29T15:35:50.000Z</time>
      </trkpt>
      <trkpt lat="45.89683" lon="3.03389">
        <ele>640.8</ele>
        <time>2026-06-29T15:36:00.000Z</time>
      </trkpt>
      <trkpt lat="45.89687" lon="3.03371">
        <ele>639.45</ele>
        <time>2026-06-29T15:36:10.000Z</time>
      </trkpt>
      <trkpt lat="45.89687" lon="3.03348">
        <ele>637.21</ele>
        <time>2026-06-29T15:36:20.000Z</time>
      </trkpt>
      <trkpt lat="45.89683" lon="3.03336">
        <ele>636.41</ele>
        <time>2026-06-29T15:36:50.000Z</time>
      </trkpt>
      <trkpt lat="45.89685" lon="3.03321">
        <ele>636</ele>
        <time>2026-06-29T15:37:00.000Z</time>
      </trkpt>
      <trkpt lat="45.89691" lon="3.0331">
        <ele>637.57</ele>
        <time>2026-06-29T15:37:11.000Z</time>
      </trkpt>
      <trkpt lat="45.89699" lon="3.03303">
        <ele>639.86</ele>
        <time>2026-06-29T15:37:22.000Z</time>
      </trkpt>
      <trkpt lat="45.89699" lon="3.03286">
        <ele>635.58</ele>
        <time>2026-06-29T15:37:32.000Z</time>
      </trkpt>
      <trkpt lat="45.89695" lon="3.03273">
        <ele>624.53</ele>
        <time>2026-06-29T15:37:53.000Z</time>
      </trkpt>
      <trkpt lat="45.89694" lon="3.0326">
        <ele>621.96</ele>
        <time>2026-06-29T15:38:19.000Z</time>
      </trkpt>
      <trkpt lat="45.89691" lon="3.03247">
        <ele>623.38</ele>
        <time>2026-06-29T15:38:31.000Z</time>
      </trkpt>
      <trkpt lat="45.89687" lon="3.03234">
        <ele>624.74</ele>
        <time>2026-06-29T15:38:41.000Z</time>
      </trkpt>
      <trkpt lat="45.89683" lon="3.03221">
        <ele>623.45</ele>
        <time>2026-06-29T15:38:54.000Z</time>
      </trkpt>
      <trkpt lat="45.89679" lon="3.0321">
        <ele>622.05</ele>
        <time>2026-06-29T15:39:04.000Z</time>
      </trkpt>
      <trkpt lat="45.89673" lon="3.03197">
        <ele>620.99</ele>
        <time>2026-06-29T15:39:14.000Z</time>
      </trkpt>
      <trkpt lat="45.89669" lon="3.03184">
        <ele>619.91</ele>
        <time>2026-06-29T15:39:25.000Z</time>
      </trkpt>
      <trkpt lat="45.89667" lon="3.03172">
        <ele>619.38</ele>
        <time>2026-06-29T15:39:35.000Z</time>
      </trkpt>
      <trkpt lat="45.89663" lon="3.0316">
        <ele>614.35</ele>
        <time>2026-06-29T15:39:53.000Z</time>
      </trkpt>
      <trkpt lat="45.89661" lon="3.03146">
        <ele>611.69</ele>
        <time>2026-06-29T15:40:07.000Z</time>
      </trkpt>
      <trkpt lat="45.89673" lon="3.03133">
        <ele>614.4</ele>
        <time>2026-06-29T15:40:17.000Z</time>
      </trkpt>
      <trkpt lat="45.89664" lon="3.03135">
        <ele>610.4</ele>
        <time>2026-06-29T15:41:00.000Z</time>
      </trkpt>
      <trkpt lat="45.89657" lon="3.03144">
        <ele>609.2</ele>
        <time>2026-06-29T15:41:20.000Z</time>
      </trkpt>
      <trkpt lat="45.89647" lon="3.0314">
        <ele>609.59</ele>
        <time>2026-06-29T15:41:38.000Z</time>
      </trkpt>
      <trkpt lat="45.89661" lon="3.03146">
        <ele>613.11</ele>
        <time>2026-06-29T15:41:48.000Z</time>
      </trkpt>
      <trkpt lat="45.89667" lon="3.03135">
        <ele>608.31</ele>
        <time>2026-06-29T15:42:31.000Z</time>
      </trkpt>
      <trkpt lat="45.89675" lon="3.03128">
        <ele>603.77</ele>
        <time>2026-06-29T15:45:01.000Z</time>
      </trkpt>
      <trkpt lat="45.89688" lon="3.03139">
        <ele>607.76</ele>
        <time>2026-06-29T15:45:11.000Z</time>
      </trkpt>
      <trkpt lat="45.89699" lon="3.03148">
        <ele>608.94</ele>
        <time>2026-06-29T15:45:21.000Z</time>
      </trkpt>
      <trkpt lat="45.89709" lon="3.03153">
        <ele>603.56</ele>
        <time>2026-06-29T15:45:31.000Z</time>
      </trkpt>
      <trkpt lat="45.8972" lon="3.03157">
        <ele>602.79</ele>
        <time>2026-06-29T15:45:41.000Z</time>
      </trkpt>
      <trkpt lat="45.89731" lon="3.03162">
        <ele>599.16</ele>
        <time>2026-06-29T15:45:51.000Z</time>
      </trkpt>
      <trkpt lat="45.89743" lon="3.03172">
        <ele>601.19</ele>
        <time>2026-06-29T15:46:01.000Z</time>
      </trkpt>
      <trkpt lat="45.89752" lon="3.03181">
        <ele>601.42</ele>
        <time>2026-06-29T15:46:11.000Z</time>
      </trkpt>
      <trkpt lat="45.89763" lon="3.03188">
        <ele>598.63</ele>
        <time>2026-06-29T15:46:21.000Z</time>
      </trkpt>
      <trkpt lat="45.89774" lon="3.03192">
        <ele>594.92</ele>
        <time>2026-06-29T15:46:31.000Z</time>
      </trkpt>
      <trkpt lat="45.89786" lon="3.03199">
        <ele>597.97</ele>
        <time>2026-06-29T15:46:41.000Z</time>
      </trkpt>
      <trkpt lat="45.89797" lon="3.03203">
        <ele>597.82</ele>
        <time>2026-06-29T15:46:51.000Z</time>
      </trkpt>
      <trkpt lat="45.89807" lon="3.03201">
        <ele>587.23</ele>
        <time>2026-06-29T15:47:01.000Z</time>
      </trkpt>
      <trkpt lat="45.89817" lon="3.03197">
        <ele>580.37</ele>
        <time>2026-06-29T15:47:11.000Z</time>
      </trkpt>
      <trkpt lat="45.89827" lon="3.03189">
        <ele>578.86</ele>
        <time>2026-06-29T15:47:21.000Z</time>
      </trkpt>
      <trkpt lat="45.89835" lon="3.0318">
        <ele>577.51</ele>
        <time>2026-06-29T15:47:31.000Z</time>
      </trkpt>
      <trkpt lat="45.89841" lon="3.0317">
        <ele>579.7</ele>
        <time>2026-06-29T15:47:41.000Z</time>
      </trkpt>
      <trkpt lat="45.89847" lon="3.0316">
        <ele>582.16</ele>
        <time>2026-06-29T15:47:52.000Z</time>
      </trkpt>
      <trkpt lat="45.89855" lon="3.03153">
        <ele>584.21</ele>
        <time>2026-06-29T15:48:04.000Z</time>
      </trkpt>
      <trkpt lat="45.89848" lon="3.03161">
        <ele>583.73</ele>
        <time>2026-06-29T15:52:28.000Z</time>
      </trkpt>
      <trkpt lat="45.8985" lon="3.03174">
        <ele>587.66</ele>
        <time>2026-06-29T15:52:50.000Z</time>
      </trkpt>
    </trkseg>
  </trk>
</gpx>